sensor_id;sensor_type;location;lat;lon;timestamp;P1;durP1;ratioP1;P2;durP2;ratioP2
57822;SDS011;43650;48.064;20.624;2023-08-07T00:00:35;1.77;;;0.68;;
57822;SDS011;43650;48.064;20.624;2023-08-07T00:01:36;0.40;;;0.40;;
57822;SDS011;43650;48.064;20.624;2023-08-07T00:02:36;2.47;;;0.60;;
57822;SDS011;43650;48.064;20.624;2023-08-07T00:03:36;0.73;;;0.60;;
57822;SDS011;43650;48.064;20.624;2023-08-07T00:04:37;0.60;;;0.50;;
57822;SDS011;43650;48.064;20.624;2023-08-07T00:05:37;0.60;;;0.60;;
57822;SDS011;43650;48.064;20.624;2023-08-07T00:06:38;0.40;;;0.40;;
57822;SDS011;43650;48.064;20.624;2023-08-07T00:07:38;0.87;;;0.67;;
57822;SDS011;43650;48.064;20.624;2023-08-07T00:08:38;1.83;;;0.60;;
57822;SDS011;43650;48.064;20.624;2023-08-07T00:09:39;1.37;;;0.70;;
57822;SDS011;43650;48.064;20.624;2023-08-07T00:10:39;0.47;;;0.43;;
57822;SDS011;43650;48.064;20.624;2023-08-07T00:11:40;3.28;;;0.70;;
57822;SDS011;43650;48.064;20.624;2023-08-07T00:12:40;1.70;;;0.70;;
57822;SDS011;43650;48.064;20.624;2023-08-07T00:13:41;0.60;;;0.53;;
57822;SDS011;43650;48.064;20.624;2023-08-07T00:14:41;2.00;;;1.10;;
57822;SDS011;43650;48.064;20.624;2023-08-07T00:15:42;3.67;;;0.60;;
57822;SDS011;43650;48.064;20.624;2023-08-07T00:16:42;2.23;;;0.70;;
57822;SDS011;43650;48.064;20.624;2023-08-07T00:17:42;3.60;;;0.77;;
57822;SDS011;43650;48.064;20.624;2023-08-07T00:18:43;0.93;;;0.80;;
57822;SDS011;43650;48.064;20.624;2023-08-07T00:19:43;2.57;;;0.70;;
57822;SDS011;43650;48.064;20.624;2023-08-07T00:20:44;1.00;;;0.63;;
57822;SDS011;43650;48.064;20.624;2023-08-07T00:21:44;1.63;;;0.80;;
57822;SDS011;43650;48.064;20.624;2023-08-07T00:22:44;1.63;;;0.80;;
57822;SDS011;43650;48.064;20.624;2023-08-07T00:23:45;1.20;;;0.60;;
57822;SDS011;43650;48.064;20.624;2023-08-07T00:24:45;1.47;;;0.77;;
57822;SDS011;43650;48.064;20.624;2023-08-07T00:25:46;1.63;;;1.23;;
57822;SDS011;43650;48.064;20.624;2023-08-07T00:26:46;1.90;;;0.97;;
57822;SDS011;43650;48.064;20.624;2023-08-07T00:27:46;2.80;;;0.80;;
57822;SDS011;43650;48.064;20.624;2023-08-07T00:28:47;1.87;;;1.03;;
57822;SDS011;43650;48.064;20.624;2023-08-07T00:29:47;1.57;;;0.73;;
57822;SDS011;43650;48.064;20.624;2023-08-07T00:30:48;1.00;;;0.80;;
57822;SDS011;43650;48.064;20.624;2023-08-07T00:31:48;1.53;;;1.00;;
57822;SDS011;43650;48.064;20.624;2023-08-07T00:32:49;4.45;;;0.65;;
57822;SDS011;43650;48.064;20.624;2023-08-07T00:33:49;0.90;;;0.70;;
57822;SDS011;43650;48.064;20.624;2023-08-07T00:34:53;2.12;;;0.70;;
57822;SDS011;43650;48.064;20.624;2023-08-07T00:35:54;1.37;;;1.10;;
57822;SDS011;43650;48.064;20.624;2023-08-07T00:36:54;1.53;;;1.10;;
57822;SDS011;43650;48.064;20.624;2023-08-07T00:37:55;1.53;;;0.90;;
57822;SDS011;43650;48.064;20.624;2023-08-07T00:38:55;1.03;;;0.83;;
57822;SDS011;43650;48.064;20.624;2023-08-07T00:39:56;0.80;;;0.67;;
57822;SDS011;43650;48.064;20.624;2023-08-07T00:40:56;0.87;;;0.73;;
57822;SDS011;43650;48.064;20.624;2023-08-07T00:41:56;1.77;;;0.93;;
57822;SDS011;43650;48.064;20.624;2023-08-07T00:42:57;1.73;;;1.17;;
57822;SDS011;43650;48.064;20.624;2023-08-07T00:43:57;1.70;;;1.07;;
57822;SDS011;43650;48.064;20.624;2023-08-07T00:44:58;2.47;;;1.13;;
57822;SDS011;43650;48.064;20.624;2023-08-07T00:45:58;1.07;;;0.80;;
57822;SDS011;43650;48.064;20.624;2023-08-07T00:46:59;0.83;;;0.80;;
57822;SDS011;43650;48.064;20.624;2023-08-07T00:47:59;1.43;;;0.90;;
57822;SDS011;43650;48.064;20.624;2023-08-07T00:48:59;5.50;;;1.00;;
57822;SDS011;43650;48.064;20.624;2023-08-07T00:50:00;2.00;;;1.00;;
57822;SDS011;43650;48.064;20.624;2023-08-07T00:51:02;1.75;;;1.10;;
57822;SDS011;43650;48.064;20.624;2023-08-07T00:52:04;1.30;;;1.00;;
57822;SDS011;43650;48.064;20.624;2023-08-07T00:53:05;4.28;;;1.17;;
57822;SDS011;43650;48.064;20.624;2023-08-07T00:54:05;3.20;;;1.08;;
57822;SDS011;43650;48.064;20.624;2023-08-07T00:55:06;3.12;;;1.12;;
57822;SDS011;43650;48.064;20.624;2023-08-07T00:56:07;1.37;;;0.98;;
57822;SDS011;43650;48.064;20.624;2023-08-07T00:57:10;1.67;;;0.90;;
57822;SDS011;43650;48.064;20.624;2023-08-07T00:58:15;1.48;;;1.00;;
57822;SDS011;43650;48.064;20.624;2023-08-07T00:59:15;2.30;;;1.00;;
57822;SDS011;43650;48.064;20.624;2023-08-07T01:00:16;1.60;;;1.00;;
57822;SDS011;43650;48.064;20.624;2023-08-07T01:01:17;1.85;;;1.25;;
57822;SDS011;43650;48.064;20.624;2023-08-07T01:02:17;1.97;;;1.40;;
57822;SDS011;43650;48.064;20.624;2023-08-07T01:03:18;4.80;;;1.35;;
57822;SDS011;43650;48.064;20.624;2023-08-07T01:04:18;1.30;;;0.97;;
57822;SDS011;43650;48.064;20.624;2023-08-07T01:05:19;1.30;;;1.07;;
57822;SDS011;43650;48.064;20.624;2023-08-07T01:06:20;2.72;;;1.40;;
57822;SDS011;43650;48.064;20.624;2023-08-07T01:07:20;1.70;;;1.17;;
57822;SDS011;43650;48.064;20.624;2023-08-07T01:08:21;1.70;;;1.40;;
57822;SDS011;43650;48.064;20.624;2023-08-07T01:09:21;1.20;;;1.00;;
57822;SDS011;43650;48.064;20.624;2023-08-07T01:10:32;1.87;;;1.30;;
57822;SDS011;43650;48.064;20.624;2023-08-07T01:11:55;2.33;;;1.30;;
57822;SDS011;43650;48.064;20.624;2023-08-07T01:13:19;1.35;;;0.93;;
57822;SDS011;43650;48.064;20.624;2023-08-07T01:15:30;4.43;;;1.58;;
57822;SDS011;43650;48.064;20.624;2023-08-07T01:17:37;2.92;;;1.15;;
57822;SDS011;43650;48.064;20.624;2023-08-07T01:18:38;1.90;;;1.35;;
57822;SDS011;43650;48.064;20.624;2023-08-07T01:19:39;1.60;;;1.02;;
57822;SDS011;43650;48.064;20.624;2023-08-07T01:20:41;1.37;;;1.00;;
57822;SDS011;43650;48.064;20.624;2023-08-07T01:21:43;1.50;;;1.20;;
57822;SDS011;43650;48.064;20.624;2023-08-07T01:22:45;2.10;;;1.25;;
57822;SDS011;43650;48.064;20.624;2023-08-07T01:23:49;1.60;;;1.30;;
57822;SDS011;43650;48.064;20.624;2023-08-07T01:24:49;1.95;;;0.93;;
57822;SDS011;43650;48.064;20.624;2023-08-07T01:25:51;2.03;;;1.12;;
57822;SDS011;43650;48.064;20.624;2023-08-07T01:26:51;2.22;;;1.00;;
57822;SDS011;43650;48.064;20.624;2023-08-07T01:27:58;2.33;;;1.20;;
57822;SDS011;43650;48.064;20.624;2023-08-07T01:29:12;1.42;;;0.93;;
57822;SDS011;43650;48.064;20.624;2023-08-07T01:31:20;1.80;;;1.05;;
57822;SDS011;43650;48.064;20.624;2023-08-07T01:32:35;3.03;;;0.90;;
57822;SDS011;43650;48.064;20.624;2023-08-07T01:34:02;1.83;;;1.65;;
57822;SDS011;43650;48.064;20.624;2023-08-07T01:35:05;2.15;;;1.23;;
57822;SDS011;43650;48.064;20.624;2023-08-07T01:36:06;1.50;;;0.98;;
57822;SDS011;43650;48.064;20.624;2023-08-07T01:37:07;1.05;;;0.90;;
57822;SDS011;43650;48.064;20.624;2023-08-07T01:38:08;2.50;;;1.20;;
57822;SDS011;43650;48.064;20.624;2023-08-07T01:39:08;1.23;;;0.82;;
57822;SDS011;43650;48.064;20.624;2023-08-07T01:40:09;2.23;;;1.30;;
57822;SDS011;43650;48.064;20.624;2023-08-07T01:41:10;1.50;;;0.98;;
57822;SDS011;43650;48.064;20.624;2023-08-07T01:42:10;1.80;;;0.87;;
57822;SDS011;43650;48.064;20.624;2023-08-07T01:43:11;1.00;;;0.73;;
57822;SDS011;43650;48.064;20.624;2023-08-07T01:44:12;0.83;;;0.70;;
57822;SDS011;43650;48.064;20.624;2023-08-07T01:45:13;3.10;;;0.80;;
57822;SDS011;43650;48.064;20.624;2023-08-07T01:46:13;1.70;;;0.60;;
57822;SDS011;43650;48.064;20.624;2023-08-07T01:47:14;0.80;;;0.70;;
57822;SDS011;43650;48.064;20.624;2023-08-07T01:48:14;1.07;;;0.70;;
57822;SDS011;43650;48.064;20.624;2023-08-07T01:49:14;1.20;;;0.90;;
57822;SDS011;43650;48.064;20.624;2023-08-07T01:50:15;1.70;;;0.60;;
57822;SDS011;43650;48.064;20.624;2023-08-07T01:51:16;1.33;;;0.70;;
57822;SDS011;43650;48.064;20.624;2023-08-07T01:52:16;1.08;;;0.70;;
57822;SDS011;43650;48.064;20.624;2023-08-07T01:53:17;1.10;;;0.80;;
57822;SDS011;43650;48.064;20.624;2023-08-07T01:54:17;0.80;;;0.67;;
57822;SDS011;43650;48.064;20.624;2023-08-07T01:55:18;3.30;;;0.80;;
57822;SDS011;43650;48.064;20.624;2023-08-07T01:56:19;1.20;;;0.60;;
57822;SDS011;43650;48.064;20.624;2023-08-07T01:57:19;0.43;;;0.43;;
57822;SDS011;43650;48.064;20.624;2023-08-07T01:58:19;0.57;;;0.57;;
57822;SDS011;43650;48.064;20.624;2023-08-07T01:59:20;1.07;;;0.70;;
57822;SDS011;43650;48.064;20.624;2023-08-07T02:00:20;1.20;;;0.60;;
57822;SDS011;43650;48.064;20.624;2023-08-07T02:01:21;1.17;;;0.50;;
57822;SDS011;43650;48.064;20.624;2023-08-07T02:02:22;0.53;;;0.50;;
57822;SDS011;43650;48.064;20.624;2023-08-07T02:04:23;1.12;;;0.60;;
57822;SDS011;43650;48.064;20.624;2023-08-07T02:05:24;1.00;;;0.80;;
57822;SDS011;43650;48.064;20.624;2023-08-07T02:06:24;1.27;;;0.60;;
57822;SDS011;43650;48.064;20.624;2023-08-07T02:07:25;1.03;;;0.60;;
57822;SDS011;43650;48.064;20.624;2023-08-07T02:08:25;0.87;;;0.57;;
57822;SDS011;43650;48.064;20.624;2023-08-07T02:09:26;1.07;;;0.67;;
57822;SDS011;43650;48.064;20.624;2023-08-07T02:10:26;0.93;;;0.70;;
57822;SDS011;43650;48.064;20.624;2023-08-07T02:11:28;1.45;;;0.60;;
57822;SDS011;43650;48.064;20.624;2023-08-07T02:12:28;1.00;;;0.70;;
57822;SDS011;43650;48.064;20.624;2023-08-07T02:13:32;1.33;;;0.70;;
57822;SDS011;43650;48.064;20.624;2023-08-07T02:14:32;1.03;;;0.60;;
57822;SDS011;43650;48.064;20.624;2023-08-07T02:15:32;0.70;;;0.67;;
57822;SDS011;43650;48.064;20.624;2023-08-07T02:16:33;0.90;;;0.70;;
57822;SDS011;43650;48.064;20.624;2023-08-07T02:17:34;0.40;;;0.40;;
57822;SDS011;43650;48.064;20.624;2023-08-07T02:18:37;1.00;;;0.73;;
57822;SDS011;43650;48.064;20.624;2023-08-07T02:19:38;2.23;;;0.70;;
57822;SDS011;43650;48.064;20.624;2023-08-07T02:20:38;0.57;;;0.50;;
57822;SDS011;43650;48.064;20.624;2023-08-07T02:21:38;0.60;;;0.57;;
57822;SDS011;43650;48.064;20.624;2023-08-07T02:22:39;2.83;;;0.67;;
57822;SDS011;43650;48.064;20.624;2023-08-07T02:23:39;0.63;;;0.50;;
57822;SDS011;43650;48.064;20.624;2023-08-07T02:24:40;0.67;;;0.47;;
57822;SDS011;43650;48.064;20.624;2023-08-07T02:25:40;0.63;;;0.60;;
57822;SDS011;43650;48.064;20.624;2023-08-07T02:26:40;0.47;;;0.40;;
57822;SDS011;43650;48.064;20.624;2023-08-07T02:27:41;0.90;;;0.63;;
57822;SDS011;43650;48.064;20.624;2023-08-07T02:28:41;2.90;;;0.77;;
57822;SDS011;43650;48.064;20.624;2023-08-07T02:29:42;0.70;;;0.60;;
57822;SDS011;43650;48.064;20.624;2023-08-07T02:30:44;1.33;;;1.00;;
57822;SDS011;43650;48.064;20.624;2023-08-07T02:31:48;2.62;;;0.50;;
57822;SDS011;43650;48.064;20.624;2023-08-07T02:32:48;0.70;;;0.60;;
57822;SDS011;43650;48.064;20.624;2023-08-07T02:33:49;0.80;;;0.50;;
57822;SDS011;43650;48.064;20.624;2023-08-07T02:34:49;0.90;;;0.70;;
57822;SDS011;43650;48.064;20.624;2023-08-07T02:35:50;1.10;;;0.60;;
57822;SDS011;43650;48.064;20.624;2023-08-07T02:36:51;0.98;;;0.68;;
57822;SDS011;43650;48.064;20.624;2023-08-07T02:37:51;0.70;;;0.63;;
57822;SDS011;43650;48.064;20.624;2023-08-07T02:38:52;0.40;;;0.40;;
57822;SDS011;43650;48.064;20.624;2023-08-07T02:39:52;1.03;;;0.77;;
57822;SDS011;43650;48.064;20.624;2023-08-07T02:40:53;3.28;;;0.60;;
57822;SDS011;43650;48.064;20.624;2023-08-07T02:41:54;6.67;;;0.73;;
57822;SDS011;43650;48.064;20.624;2023-08-07T02:42:54;1.53;;;0.60;;
57822;SDS011;43650;48.064;20.624;2023-08-07T02:43:55;1.40;;;0.80;;
57822;SDS011;43650;48.064;20.624;2023-08-07T02:44:55;1.85;;;0.80;;
57822;SDS011;43650;48.064;20.624;2023-08-07T02:45:56;1.73;;;0.80;;
57822;SDS011;43650;48.064;20.624;2023-08-07T02:46:56;0.33;;;0.33;;
57822;SDS011;43650;48.064;20.624;2023-08-07T02:47:56;0.60;;;0.60;;
57822;SDS011;43650;48.064;20.624;2023-08-07T02:48:57;3.87;;;0.67;;
57822;SDS011;43650;48.064;20.624;2023-08-07T02:49:57;0.50;;;0.50;;
57822;SDS011;43650;48.064;20.624;2023-08-07T02:51:59;0.73;;;0.50;;
57822;SDS011;43650;48.064;20.624;2023-08-07T02:53:00;1.50;;;0.40;;
57822;SDS011;43650;48.064;20.624;2023-08-07T02:54:01;0.65;;;0.52;;
57822;SDS011;43650;48.064;20.624;2023-08-07T02:55:01;0.70;;;0.43;;
57822;SDS011;43650;48.064;20.624;2023-08-07T02:56:02;0.47;;;0.40;;
57822;SDS011;43650;48.064;20.624;2023-08-07T02:57:02;0.80;;;0.60;;
57822;SDS011;43650;48.064;20.624;2023-08-07T02:58:03;2.73;;;0.47;;
57822;SDS011;43650;48.064;20.624;2023-08-07T02:59:03;0.50;;;0.50;;
57822;SDS011;43650;48.064;20.624;2023-08-07T03:00:05;0.85;;;0.70;;
57822;SDS011;43650;48.064;20.624;2023-08-07T03:02:06;1.45;;;0.70;;
57822;SDS011;43650;48.064;20.624;2023-08-07T03:03:06;0.70;;;0.70;;
57822;SDS011;43650;48.064;20.624;2023-08-07T03:04:07;0.40;;;0.30;;
57822;SDS011;43650;48.064;20.624;2023-08-07T03:05:08;0.30;;;0.30;;
57822;SDS011;43650;48.064;20.624;2023-08-07T03:06:08;2.62;;;0.47;;
57822;SDS011;43650;48.064;20.624;2023-08-07T03:07:09;1.07;;;0.70;;
57822;SDS011;43650;48.064;20.624;2023-08-07T03:08:09;0.30;;;0.23;;
57822;SDS011;43650;48.064;20.624;2023-08-07T03:09:09;1.70;;;0.40;;
57822;SDS011;43650;48.064;20.624;2023-08-07T03:10:10;0.43;;;0.32;;
57822;SDS011;43650;48.064;20.624;2023-08-07T03:11:11;1.62;;;1.02;;
57822;SDS011;43650;48.064;20.624;2023-08-07T03:12:12;2.20;;;0.60;;
57822;SDS011;43650;48.064;20.624;2023-08-07T03:13:12;0.30;;;0.30;;
57822;SDS011;43650;48.064;20.624;2023-08-07T03:14:12;0.53;;;0.37;;
57822;SDS011;43650;48.064;20.624;2023-08-07T03:15:13;0.63;;;0.60;;
57822;SDS011;43650;48.064;20.624;2023-08-07T03:16:13;1.10;;;0.43;;
57822;SDS011;43650;48.064;20.624;2023-08-07T03:17:14;1.67;;;0.37;;
57822;SDS011;43650;48.064;20.624;2023-08-07T03:18:14;0.40;;;0.40;;
57822;SDS011;43650;48.064;20.624;2023-08-07T03:19:15;1.20;;;0.50;;
57822;SDS011;43650;48.064;20.624;2023-08-07T03:20:15;0.30;;;0.30;;
57822;SDS011;43650;48.064;20.624;2023-08-07T03:21:16;0.50;;;0.50;;
57822;SDS011;43650;48.064;20.624;2023-08-07T03:22:16;0.83;;;0.50;;
57822;SDS011;43650;48.064;20.624;2023-08-07T03:23:16;2.40;;;0.37;;
57822;SDS011;43650;48.064;20.624;2023-08-07T03:24:17;0.97;;;0.30;;
57822;SDS011;43650;48.064;20.624;2023-08-07T03:25:17;4.10;;;0.40;;
57822;SDS011;43650;48.064;20.624;2023-08-07T03:26:18;0.37;;;0.37;;
57822;SDS011;43650;48.064;20.624;2023-08-07T03:27:18;0.97;;;0.50;;
57822;SDS011;43650;48.064;20.624;2023-08-07T03:28:18;0.63;;;0.53;;
57822;SDS011;43650;48.064;20.624;2023-08-07T03:29:19;0.30;;;0.30;;
57822;SDS011;43650;48.064;20.624;2023-08-07T03:30:19;1.63;;;0.50;;
57822;SDS011;43650;48.064;20.624;2023-08-07T03:31:20;0.40;;;0.30;;
57822;SDS011;43650;48.064;20.624;2023-08-07T03:32:20;0.87;;;0.37;;
57822;SDS011;43650;48.064;20.624;2023-08-07T03:33:21;0.10;;;0.10;;
57822;SDS011;43650;48.064;20.624;2023-08-07T03:34:21;1.80;;;0.40;;
57822;SDS011;43650;48.064;20.624;2023-08-07T03:35:21;1.13;;;0.20;;
57822;SDS011;43650;48.064;20.624;2023-08-07T03:36:22;0.40;;;0.30;;
57822;SDS011;43650;48.064;20.624;2023-08-07T03:37:22;0.20;;;0.20;;
57822;SDS011;43650;48.064;20.624;2023-08-07T03:38:23;0.40;;;0.40;;
57822;SDS011;43650;48.064;20.624;2023-08-07T03:39:23;2.80;;;0.50;;
57822;SDS011;43650;48.064;20.624;2023-08-07T03:40:24;3.95;;;0.62;;
57822;SDS011;43650;48.064;20.624;2023-08-07T03:41:25;0.37;;;0.37;;
57822;SDS011;43650;48.064;20.624;2023-08-07T03:42:25;0.57;;;0.33;;
57822;SDS011;43650;48.064;20.624;2023-08-07T03:43:25;0.77;;;0.40;;
57822;SDS011;43650;48.064;20.624;2023-08-07T03:44:26;0.63;;;0.40;;
57822;SDS011;43650;48.064;20.624;2023-08-07T03:45:26;0.40;;;0.40;;
57822;SDS011;43650;48.064;20.624;2023-08-07T03:46:27;0.27;;;0.27;;
57822;SDS011;43650;48.064;20.624;2023-08-07T03:47:27;0.73;;;0.40;;
57822;SDS011;43650;48.064;20.624;2023-08-07T03:48:28;0.63;;;0.50;;
57822;SDS011;43650;48.064;20.624;2023-08-07T03:49:28;0.70;;;0.33;;
57822;SDS011;43650;48.064;20.624;2023-08-07T03:50:28;2.00;;;0.30;;
57822;SDS011;43650;48.064;20.624;2023-08-07T03:51:30;0.60;;;0.30;;
57822;SDS011;43650;48.064;20.624;2023-08-07T03:53:32;0.50;;;0.37;;
57822;SDS011;43650;48.064;20.624;2023-08-07T03:54:32;0.20;;;0.20;;
57822;SDS011;43650;48.064;20.624;2023-08-07T03:55:33;0.97;;;0.30;;
57822;SDS011;43650;48.064;20.624;2023-08-07T03:56:34;0.77;;;0.32;;
57822;SDS011;43650;48.064;20.624;2023-08-07T03:57:38;0.20;;;0.10;;
57822;SDS011;43650;48.064;20.624;2023-08-07T03:58:38;0.43;;;0.33;;
57822;SDS011;43650;48.064;20.624;2023-08-07T03:59:39;0.50;;;0.40;;
57822;SDS011;43650;48.064;20.624;2023-08-07T04:00:39;0.30;;;0.30;;
57822;SDS011;43650;48.064;20.624;2023-08-07T04:01:39;0.63;;;0.60;;
57822;SDS011;43650;48.064;20.624;2023-08-07T04:02:40;0.40;;;0.40;;
57822;SDS011;43650;48.064;20.624;2023-08-07T04:03:40;1.25;;;0.20;;
57822;SDS011;43650;48.064;20.624;2023-08-07T04:04:41;0.70;;;0.30;;
57822;SDS011;43650;48.064;20.624;2023-08-07T04:05:41;0.77;;;0.50;;
57822;SDS011;43650;48.064;20.624;2023-08-07T04:06:42;0.57;;;0.40;;
57822;SDS011;43650;48.064;20.624;2023-08-07T04:07:43;0.20;;;0.20;;
57822;SDS011;43650;48.064;20.624;2023-08-07T04:08:47;1.30;;;0.30;;
57822;SDS011;43650;48.064;20.624;2023-08-07T04:09:48;0.20;;;0.20;;
57822;SDS011;43650;48.064;20.624;2023-08-07T04:10:58;0.20;;;0.20;;
57822;SDS011;43650;48.064;20.624;2023-08-07T04:12:05;0.52;;;0.40;;
57822;SDS011;43650;48.064;20.624;2023-08-07T04:13:05;0.30;;;0.30;;
57822;SDS011;43650;48.064;20.624;2023-08-07T04:14:06;4.80;;;0.40;;
57822;SDS011;43650;48.064;20.624;2023-08-07T04:15:06;0.23;;;0.23;;
57822;SDS011;43650;48.064;20.624;2023-08-07T04:17:08;0.60;;;0.30;;
57822;SDS011;43650;48.064;20.624;2023-08-07T04:18:08;0.70;;;0.50;;
57822;SDS011;43650;48.064;20.624;2023-08-07T04:19:09;0.83;;;0.40;;
57822;SDS011;43650;48.064;20.624;2023-08-07T04:20:09;0.57;;;0.30;;
57822;SDS011;43650;48.064;20.624;2023-08-07T04:21:10;0.45;;;0.40;;
57822;SDS011;43650;48.064;20.624;2023-08-07T04:22:10;0.30;;;0.30;;
57822;SDS011;43650;48.064;20.624;2023-08-07T04:23:11;5.17;;;3.13;;
57822;SDS011;43650;48.064;20.624;2023-08-07T04:24:11;0.83;;;0.47;;
57822;SDS011;43650;48.064;20.624;2023-08-07T04:25:12;1.00;;;0.70;;
57822;SDS011;43650;48.064;20.624;2023-08-07T04:26:12;0.20;;;0.20;;
57822;SDS011;43650;48.064;20.624;2023-08-07T04:27:14;1.45;;;0.40;;
57822;SDS011;43650;48.064;20.624;2023-08-07T04:28:14;0.63;;;0.53;;
57822;SDS011;43650;48.064;20.624;2023-08-07T04:29:15;2.92;;;0.35;;
57822;SDS011;43650;48.064;20.624;2023-08-07T04:30:16;0.20;;;0.20;;
57822;SDS011;43650;48.064;20.624;2023-08-07T04:31:16;2.00;;;0.17;;
57822;SDS011;43650;48.064;20.624;2023-08-07T04:32:16;0.27;;;0.27;;
57822;SDS011;43650;48.064;20.624;2023-08-07T04:33:17;1.37;;;0.40;;
57822;SDS011;43650;48.064;20.624;2023-08-07T04:34:18;0.75;;;0.47;;
57822;SDS011;43650;48.064;20.624;2023-08-07T04:35:19;4.80;;;0.97;;
57822;SDS011;43650;48.064;20.624;2023-08-07T04:36:19;0.20;;;0.20;;
57822;SDS011;43650;48.064;20.624;2023-08-07T04:38:21;0.30;;;0.20;;
57822;SDS011;43650;48.064;20.624;2023-08-07T04:39:22;0.30;;;0.30;;
57822;SDS011;43650;48.064;20.624;2023-08-07T04:40:22;0.45;;;0.35;;
57822;SDS011;43650;48.064;20.624;2023-08-07T04:41:23;0.77;;;0.47;;
57822;SDS011;43650;48.064;20.624;2023-08-07T04:42:24;0.30;;;0.30;;
57822;SDS011;43650;48.064;20.624;2023-08-07T04:43:24;0.53;;;0.30;;
57822;SDS011;43650;48.064;20.624;2023-08-07T04:44:25;0.60;;;0.30;;
57822;SDS011;43650;48.064;20.624;2023-08-07T04:45:25;3.00;;;0.30;;
57822;SDS011;43650;48.064;20.624;2023-08-07T04:46:26;0.30;;;0.20;;
57822;SDS011;43650;48.064;20.624;2023-08-07T04:47:27;2.35;;;0.30;;
57822;SDS011;43650;48.064;20.624;2023-08-07T04:48:28;9.32;;;0.52;;
57822;SDS011;43650;48.064;20.624;2023-08-07T04:49:28;2.07;;;0.33;;
57822;SDS011;43650;48.064;20.624;2023-08-07T04:50:29;0.20;;;0.13;;
57822;SDS011;43650;48.064;20.624;2023-08-07T04:51:29;0.20;;;0.20;;
57822;SDS011;43650;48.064;20.624;2023-08-07T04:53:31;0.10;;;0.10;;
57822;SDS011;43650;48.064;20.624;2023-08-07T04:54:32;0.30;;;0.30;;
57822;SDS011;43650;48.064;20.624;2023-08-07T04:55:32;2.63;;;0.20;;
57822;SDS011;43650;48.064;20.624;2023-08-07T04:56:33;0.52;;;0.30;;
57822;SDS011;43650;48.064;20.624;2023-08-07T04:57:33;2.23;;;0.30;;
57822;SDS011;43650;48.064;20.624;2023-08-07T04:58:33;0.33;;;0.27;;
57822;SDS011;43650;48.064;20.624;2023-08-07T04:59:34;0.30;;;0.30;;
57822;SDS011;43650;48.064;20.624;2023-08-07T05:00:35;0.10;;;0.10;;
57822;SDS011;43650;48.064;20.624;2023-08-07T05:01:36;0.10;;;0.10;;
57822;SDS011;43650;48.064;20.624;2023-08-07T05:02:37;2.80;;;0.30;;
57822;SDS011;43650;48.064;20.624;2023-08-07T05:03:37;1.17;;;0.30;;
57822;SDS011;43650;48.064;20.624;2023-08-07T05:04:38;0.20;;;0.20;;
57822;SDS011;43650;48.064;20.624;2023-08-07T05:05:38;0.30;;;0.30;;
57822;SDS011;43650;48.064;20.624;2023-08-07T05:06:38;0.13;;;0.13;;
57822;SDS011;43650;48.064;20.624;2023-08-07T05:07:39;0.20;;;0.20;;
57822;SDS011;43650;48.064;20.624;2023-08-07T05:08:39;4.63;;;0.33;;
57822;SDS011;43650;48.064;20.624;2023-08-07T05:09:40;0.30;;;0.20;;
57822;SDS011;43650;48.064;20.624;2023-08-07T05:10:40;2.20;;;0.20;;
57822;SDS011;43650;48.064;20.624;2023-08-07T05:11:41;0.50;;;0.40;;
57822;SDS011;43650;48.064;20.624;2023-08-07T05:12:41;2.07;;;0.33;;
57822;SDS011;43650;48.064;20.624;2023-08-07T05:13:41;0.20;;;0.20;;
57822;SDS011;43650;48.064;20.624;2023-08-07T05:14:42;0.30;;;0.20;;
57822;SDS011;43650;48.064;20.624;2023-08-07T05:15:42;0.10;;;0.10;;
57822;SDS011;43650;48.064;20.624;2023-08-07T05:16:43;0.20;;;0.20;;
57822;SDS011;43650;48.064;20.624;2023-08-07T05:17:43;0.63;;;0.30;;
57822;SDS011;43650;48.064;20.624;2023-08-07T05:18:43;0.97;;;0.47;;
57822;SDS011;43650;48.064;20.624;2023-08-07T05:19:44;0.53;;;0.30;;
57822;SDS011;43650;48.064;20.624;2023-08-07T05:20:44;0.30;;;0.20;;
57822;SDS011;43650;48.064;20.624;2023-08-07T05:21:45;0.33;;;0.20;;
57822;SDS011;43650;48.064;20.624;2023-08-07T05:22:49;12.27;;;0.68;;
57822;SDS011;43650;48.064;20.624;2023-08-07T05:23:50;0.53;;;0.27;;
57822;SDS011;43650;48.064;20.624;2023-08-07T05:24:53;0.10;;;0.10;;
57822;SDS011;43650;48.064;20.624;2023-08-07T05:25:53;0.50;;;0.20;;
57822;SDS011;43650;48.064;20.624;2023-08-07T05:26:54;0.20;;;0.20;;
57822;SDS011;43650;48.064;20.624;2023-08-07T05:27:54;0.30;;;0.23;;
57822;SDS011;43650;48.064;20.624;2023-08-07T05:28:55;0.20;;;0.20;;
57822;SDS011;43650;48.064;20.624;2023-08-07T05:29:57;0.73;;;0.35;;
57822;SDS011;43650;48.064;20.624;2023-08-07T05:30:59;0.85;;;0.20;;
57822;SDS011;43650;48.064;20.624;2023-08-07T05:31:59;1.10;;;0.30;;
57822;SDS011;43650;48.064;20.624;2023-08-07T05:33:00;0.20;;;0.20;;
57822;SDS011;43650;48.064;20.624;2023-08-07T05:34:00;1.27;;;0.50;;
57822;SDS011;43650;48.064;20.624;2023-08-07T05:35:01;0.47;;;0.30;;
57822;SDS011;43650;48.064;20.624;2023-08-07T05:36:01;0.40;;;0.30;;
57822;SDS011;43650;48.064;20.624;2023-08-07T05:37:02;0.40;;;0.30;;
57822;SDS011;43650;48.064;20.624;2023-08-07T05:38:02;0.67;;;0.40;;
57822;SDS011;43650;48.064;20.624;2023-08-07T05:39:03;1.55;;;0.30;;
57822;SDS011;43650;48.064;20.624;2023-08-07T05:40:04;1.02;;;0.22;;
57822;SDS011;43650;48.064;20.624;2023-08-07T05:41:05;0.20;;;0.20;;
57822;SDS011;43650;48.064;20.624;2023-08-07T05:42:06;2.10;;;0.50;;
57822;SDS011;43650;48.064;20.624;2023-08-07T05:43:07;4.55;;;1.73;;
57822;SDS011;43650;48.064;20.624;2023-08-07T05:44:08;0.30;;;0.20;;
57822;SDS011;43650;48.064;20.624;2023-08-07T05:45:09;0.53;;;0.30;;
57822;SDS011;43650;48.064;20.624;2023-08-07T05:47:10;0.32;;;0.30;;
57822;SDS011;43650;48.064;20.624;2023-08-07T05:48:11;0.10;;;0.10;;
57822;SDS011;43650;48.064;20.624;2023-08-07T05:49:12;0.43;;;0.30;;
57822;SDS011;43650;48.064;20.624;2023-08-07T05:50:12;0.60;;;0.30;;
57822;SDS011;43650;48.064;20.624;2023-08-07T05:51:12;0.20;;;0.20;;
57822;SDS011;43650;48.064;20.624;2023-08-07T05:52:14;0.90;;;0.40;;
57822;SDS011;43650;48.064;20.624;2023-08-07T05:53:14;0.22;;;0.20;;
57822;SDS011;43650;48.064;20.624;2023-08-07T05:54:14;0.40;;;0.20;;
57822;SDS011;43650;48.064;20.624;2023-08-07T05:55:15;0.27;;;0.20;;
57822;SDS011;43650;48.064;20.624;2023-08-07T05:56:15;0.43;;;0.30;;
57822;SDS011;43650;48.064;20.624;2023-08-07T05:57:18;0.25;;;0.20;;
57822;SDS011;43650;48.064;20.624;2023-08-07T05:58:18;1.27;;;0.40;;
57822;SDS011;43650;48.064;20.624;2023-08-07T05:59:19;2.00;;;0.20;;
57822;SDS011;43650;48.064;20.624;2023-08-07T06:00:19;0.20;;;0.20;;
57822;SDS011;43650;48.064;20.624;2023-08-07T06:01:19;1.10;;;0.30;;
57822;SDS011;43650;48.064;20.624;2023-08-07T06:02:20;0.30;;;0.30;;
57822;SDS011;43650;48.064;20.624;2023-08-07T06:03:20;0.43;;;0.20;;
57822;SDS011;43650;48.064;20.624;2023-08-07T06:04:21;0.80;;;0.53;;
57822;SDS011;43650;48.064;20.624;2023-08-07T06:05:21;0.57;;;0.33;;
57822;SDS011;43650;48.064;20.624;2023-08-07T06:06:22;2.60;;;0.77;;
57822;SDS011;43650;48.064;20.624;2023-08-07T06:07:23;0.57;;;0.30;;
57822;SDS011;43650;48.064;20.624;2023-08-07T06:08:23;0.43;;;0.20;;
57822;SDS011;43650;48.064;20.624;2023-08-07T06:09:24;3.10;;;0.20;;
57822;SDS011;43650;48.064;20.624;2023-08-07T06:10:24;0.10;;;0.10;;
57822;SDS011;43650;48.064;20.624;2023-08-07T06:11:25;0.20;;;0.20;;
57822;SDS011;43650;48.064;20.624;2023-08-07T06:12:25;0.20;;;0.20;;
57822;SDS011;43650;48.064;20.624;2023-08-07T06:13:25;0.83;;;0.33;;